createdAt,value
2019-01-08T00:02:35.028Z,4.93
2019-01-08T00:07:37.048Z,4.95
2019-01-08T00:12:39.135Z,4.87
2019-01-08T00:17:42.210Z,4.91
2019-01-08T00:22:44.167Z,4.92
2019-01-08T00:27:46.061Z,4.92
2019-01-08T00:32:48.301Z,5.03
2019-01-08T00:37:50.193Z,5.02
2019-01-08T00:42:52.124Z,4.92
2019-01-08T00:47:54.233Z,5.01
2019-01-08T00:52:56.144Z,4.90
2019-01-08T00:57:58.259Z,4.99
2019-01-08T01:03:00.185Z,5.09
2019-01-08T01:08:02.082Z,5.14
2019-01-08T01:13:04.703Z,5.16
2019-01-08T01:18:06.927Z,5.13
2019-01-08T01:23:09.060Z,5.24
2019-01-08T01:28:10.973Z,5.18
2019-01-08T01:33:12.896Z,5.25
2019-01-08T01:38:14.855Z,5.27
2019-01-08T01:43:16.815Z,5.33
2019-01-08T01:48:18.853Z,5.39
2019-01-08T01:53:20.909Z,5.37
2019-01-08T01:58:22.816Z,5.34
2019-01-08T02:03:24.733Z,5.40
2019-01-08T02:08:26.633Z,5.37
2019-01-08T02:13:28.585Z,5.47
2019-01-08T02:18:30.509Z,5.48
2019-01-08T02:23:32.442Z,5.58
2019-01-08T02:28:34.353Z,5.58
2019-01-08T02:33:36.286Z,5.64
2019-01-08T02:38:38.345Z,5.61
2019-01-08T02:43:40.393Z,5.60
2019-01-08T02:48:42.313Z,5.63
2019-01-08T02:53:44.191Z,5.60
2019-01-08T02:58:46.209Z,5.50
2019-01-08T03:03:48.145Z,5.41
2019-01-08T03:08:50.265Z,5.29
2019-01-08T03:13:52.229Z,5.30
2019-01-08T03:18:54.130Z,5.32
2019-01-08T03:23:56.052Z,5.20
2019-01-08T03:28:57.962Z,5.26
2019-01-08T03:33:59.855Z,5.26
2019-01-08T03:39:01.961Z,5.18
2019-01-08T03:44:05.245Z,5.21
2019-01-08T03:49:07.282Z,5.20
2019-01-08T03:54:09.366Z,5.08
2019-01-08T03:59:11.398Z,5.09
2019-01-08T04:04:13.293Z,5.03
2019-01-08T04:09:15.588Z,4.95
2019-01-08T04:14:17.523Z,4.97
2019-01-08T04:19:19.485Z,5.05
2019-01-08T04:24:21.906Z,5.12
2019-01-08T04:29:23.861Z,5.16
2019-01-08T04:34:25.803Z,5.11
2019-01-08T04:39:27.723Z,5.11
2019-01-08T04:44:29.835Z,5.07
2019-01-08T04:49:31.837Z,5.10
2019-01-08T04:54:33.740Z,5.01
2019-01-08T04:59:35.676Z,4.91
2019-01-08T05:04:37.933Z,4.85
2019-01-08T05:09:40.104Z,4.86
2019-01-08T05:14:42.815Z,4.89
2019-01-08T05:19:46.007Z,5.00
2019-01-08T05:24:49.170Z,5.07
2019-01-08T05:29:52.085Z,5.03
2019-01-08T05:34:54.061Z,4.89
2019-01-08T05:39:55.993Z,4.89
2019-01-08T05:44:57.949Z,4.67
2019-01-08T05:49:59.875Z,4.64
2019-01-08T05:55:01.791Z,4.72
2019-01-08T06:00:04.394Z,4.83
2019-01-08T06:05:06.403Z,4.92
2019-01-08T06:10:08.809Z,5.01
2019-01-08T06:15:10.814Z,5.22
2019-01-08T06:20:12.743Z,5.18
2019-01-08T06:25:14.665Z,5.06
2019-01-08T06:30:24.546Z,5.24
2019-01-08T06:35:20.565Z,5.34
2019-01-08T06:40:22.500Z,5.27
2019-01-08T06:45:24.540Z,5.29
2019-01-08T06:50:26.441Z,5.21
2019-01-08T06:55:28.368Z,5.14
2019-01-08T07:00:33.385Z,5.16
2019-01-08T07:05:34.114Z,5.06
2019-01-08T07:10:36.046Z,5.01
2019-01-08T07:15:38.025Z,5.05
2019-01-08T07:20:39.892Z,4.94
2019-01-08T07:25:42.217Z,4.95
2019-01-08T07:30:44.504Z,5.01
2019-01-08T07:35:46.545Z,4.94
2019-01-08T07:40:48.477Z,4.94
2019-01-08T07:45:50.495Z,4.97
2019-01-08T07:50:52.420Z,4.99
2019-01-08T07:55:54.376Z,5.11
2019-01-08T08:00:56.327Z,5.17
2019-01-08T08:05:58.247Z,5.28
2019-01-08T08:11:00.183Z,5.37
2019-01-08T08:16:02.247Z,5.32
2019-01-08T08:21:04.257Z,5.24
2019-01-08T08:26:06.281Z,5.33
2019-01-08T08:31:08.239Z,5.38
2019-01-08T08:36:10.187Z,5.44
2019-01-08T08:41:12.221Z,5.44
2019-01-08T08:46:14.321Z,5.33
2019-01-08T08:51:16.226Z,5.26
2019-01-08T08:56:18.253Z,5.26
2019-01-08T09:01:20.259Z,5.24
2019-01-08T09:06:22.200Z,5.24
2019-01-08T09:11:24.129Z,5.33
2019-01-08T09:16:26.064Z,5.39
2019-01-08T09:21:27.966Z,5.37
2019-01-08T09:26:29.901Z,5.51
2019-01-08T09:31:31.875Z,5.58
2019-01-08T09:36:33.919Z,5.55
2019-01-08T09:41:35.848Z,5.49
2019-01-08T09:46:38.147Z,5.49
2019-01-08T09:51:40.076Z,5.54
2019-01-08T09:56:42.005Z,5.60
2019-01-08T10:01:43.956Z,5.73
2019-01-08T10:06:45.864Z,5.82
2019-01-08T10:11:47.890Z,5.98
2019-01-08T10:16:49.879Z,6.05
2019-01-08T10:21:51.783Z,6.26
2019-01-08T10:26:54.073Z,6.45
2019-01-08T10:31:55.973Z,6.44
2019-01-08T10:36:58.021Z,6.56
2019-01-08T10:41:59.939Z,6.67
2019-01-08T10:47:01.882Z,6.46
2019-01-08T10:52:03.887Z,6.31
2019-01-08T10:57:06.666Z,6.03
2019-01-08T11:02:08.570Z,5.92
2019-01-08T11:07:11.716Z,5.52
2019-01-08T11:12:13.974Z,5.31
2019-01-08T11:17:16.037Z,5.14
2019-01-08T11:22:17.944Z,5.23
2019-01-08T11:27:19.978Z,5.30
2019-01-08T11:32:21.876Z,5.33
2019-01-08T11:37:23.837Z,5.45
2019-01-08T11:42:25.779Z,5.60
2019-01-08T11:47:27.780Z,5.69
2019-01-08T11:52:29.677Z,5.84
2019-01-08T11:57:31.716Z,5.83
2019-01-08T12:02:33.643Z,5.83
2019-01-08T12:07:35.700Z,5.80
2019-01-08T12:12:37.713Z,5.76
2019-01-08T12:17:39.689Z,5.84
2019-01-08T12:22:41.710Z,5.91
2019-01-08T12:27:43.650Z,6.09
2019-01-08T12:32:45.565Z,6.00
2019-01-08T12:37:47.480Z,6.02
2019-01-08T12:42:49.443Z,6.00
2019-01-08T12:47:51.387Z,5.97
2019-01-08T12:52:53.290Z,5.94
2019-01-08T12:57:55.231Z,5.90
2019-01-08T13:02:57.141Z,5.79
2019-01-08T13:07:59.066Z,5.70
2019-01-08T13:13:02.197Z,5.73
2019-01-08T13:18:04.224Z,5.78
2019-01-08T13:23:06.134Z,5.91
2019-01-08T13:28:08.196Z,5.52
2019-01-08T13:33:10.201Z,5.31
2019-01-08T13:38:12.161Z,5.41
2019-01-08T13:43:14.129Z,5.43
2019-01-08T13:48:16.062Z,5.68
2019-01-08T13:53:18.066Z,5.97
2019-01-08T13:58:19.978Z,6.35
2019-01-08T14:03:22.527Z,5.90
2019-01-08T14:08:25.575Z,5.53
2019-01-08T14:13:27.485Z,5.78
2019-01-08T14:18:29.436Z,5.60
2019-01-08T14:23:31.549Z,5.71
2019-01-08T14:28:33.553Z,5.82
2019-01-08T14:33:35.571Z,5.78
2019-01-08T14:38:37.741Z,5.77
2019-01-08T14:43:46.380Z,5.84
2019-01-08T14:48:48.341Z,5.94
2019-01-08T14:53:50.299Z,5.95
2019-01-08T14:58:53.546Z,5.93
2019-01-08T15:03:55.443Z,6.02
2019-01-08T15:08:57.618Z,6.10
2019-01-08T15:13:59.572Z,6.12
2019-01-08T15:19:01.530Z,6.08
2019-01-08T15:24:03.422Z,6.16
2019-01-08T15:29:05.333Z,6.22
2019-01-08T15:34:07.394Z,6.12
2019-01-08T15:39:09.318Z,6.27
2019-01-08T15:44:15.428Z,6.19
2019-01-08T15:49:15.126Z,6.05
2019-01-08T15:54:17.027Z,6.11
2019-01-08T15:59:18.957Z,6.04
2019-01-08T16:04:20.889Z,6.15
2019-01-08T16:09:22.796Z,6.08
2019-01-08T16:14:24.824Z,6.06
2019-01-08T16:19:26.929Z,6.02
2019-01-08T16:24:28.827Z,5.97
2019-01-08T16:29:30.971Z,6.11
2019-01-08T16:34:33.326Z,6.02
2019-01-08T16:39:35.273Z,5.97
2019-01-08T16:44:37.206Z,5.94
2019-01-08T16:49:39.159Z,6.03
2019-01-08T16:54:43.005Z,6.08
2019-01-08T16:59:46.022Z,6.19
2019-01-08T17:04:48.024Z,6.10
2019-01-08T17:09:49.945Z,6.19
2019-01-08T17:14:52.311Z,6.22
2019-01-08T17:19:54.427Z,6.07
2019-01-08T17:24:56.280Z,5.98
2019-01-08T17:29:59.211Z,6.00
2019-01-08T17:35:01.307Z,5.99
2019-01-08T17:40:04.725Z,5.80
2019-01-08T17:45:08.063Z,5.61
2019-01-08T17:50:10.170Z,5.67
2019-01-08T17:55:12.164Z,5.52
2019-01-08T18:00:14.382Z,5.52
2019-01-08T18:05:16.335Z,5.51
2019-01-08T18:10:18.644Z,5.23
2019-01-08T18:15:20.556Z,5.29
2019-01-08T18:20:22.613Z,5.10
2019-01-08T18:25:24.527Z,5.20
2019-01-08T18:30:26.462Z,5.13
2019-01-08T18:35:28.653Z,4.81
2019-01-08T18:40:30.826Z,4.81
2019-01-08T18:45:32.747Z,4.70
2019-01-08T18:50:34.684Z,4.68
2019-01-08T18:55:36.594Z,4.68
2019-01-08T19:00:38.537Z,4.70
2019-01-08T19:05:40.473Z,4.80
2019-01-08T19:10:42.621Z,4.65
2019-01-08T19:15:44.541Z,4.50
2019-01-08T19:20:46.494Z,7.31
2019-01-08T19:25:48.408Z,5.22
2019-01-08T19:30:50.334Z,4.48
2019-01-08T19:35:52.298Z,4.35
2019-01-08T19:40:55.744Z,3.93
2019-01-08T19:45:57.674Z,4.03
2019-01-08T19:50:59.572Z,4.11
2019-01-08T19:56:01.585Z,4.03
2019-01-08T20:01:04.610Z,4.26
2019-01-08T20:06:06.662Z,4.62
2019-01-08T20:11:08.581Z,4.67
2019-01-08T20:16:10.526Z,4.62
2019-01-08T20:21:12.569Z,4.57
2019-01-08T20:26:14.469Z,4.62
2019-01-08T20:31:16.383Z,4.51
2019-01-08T20:36:18.497Z,4.69
2019-01-08T20:41:20.474Z,4.50
2019-01-08T20:46:22.446Z,4.46
2019-01-08T20:51:24.345Z,4.59
2019-01-08T20:56:26.316Z,4.34
2019-01-08T21:01:28.428Z,4.36
2019-01-08T21:06:30.446Z,4.38
2019-01-08T21:11:32.390Z,4.24
2019-01-08T21:16:34.304Z,3.93
2019-01-08T21:21:36.200Z,4.22
2019-01-08T21:26:38.190Z,3.86
2019-01-08T21:31:40.096Z,3.76
2019-01-08T21:36:42.123Z,3.78
2019-01-08T21:41:44.685Z,3.71
2019-01-08T21:46:47.761Z,3.92
2019-01-08T21:51:49.672Z,3.79
2019-01-08T21:56:51.619Z,3.61
2019-01-08T22:01:53.546Z,3.56
2019-01-08T22:06:55.665Z,3.52
2019-01-08T22:11:57.609Z,3.48
2019-01-08T22:16:59.955Z,3.57
2019-01-08T22:22:01.908Z,3.34
2019-01-08T22:27:03.839Z,2.91
2019-01-08T22:32:05.880Z,2.60
2019-01-08T22:37:07.780Z,2.88
2019-01-08T22:42:10.994Z,2.45
2019-01-08T22:47:12.951Z,2.45
2019-01-08T22:52:14.839Z,2.85
2019-01-08T22:57:16.753Z,2.59
2019-01-08T23:02:18.868Z,2.23
2019-01-08T23:07:20.785Z,2.23
2019-01-08T23:12:22.819Z,2.37
2019-01-08T23:17:24.793Z,2.14
2019-01-08T23:22:26.802Z,2.37
2019-01-08T23:27:28.722Z,2.34
2019-01-08T23:32:30.846Z,2.27
2019-01-08T23:37:32.784Z,2.38
2019-01-08T23:42:34.922Z,2.28
2019-01-08T23:47:36.882Z,2.24
2019-01-08T23:53:00.493Z,2.28
2019-01-08T23:58:02.640Z,2.22
